createdAt,value
2022-11-27T00:02:20.716Z,1.70
2022-11-27T00:04:47.151Z,1.10
2022-11-27T00:07:13.554Z,2.50
2022-11-27T00:09:40.279Z,1.58
2022-11-27T00:12:06.984Z,1.60
2022-11-27T00:14:33.394Z,1.40
2022-11-27T00:16:59.926Z,1.25
2022-11-27T00:19:26.395Z,1.60
2022-11-27T00:21:52.779Z,1.20
2022-11-27T00:24:19.165Z,1.38
2022-11-27T00:26:46.690Z,1.10
2022-11-27T00:29:13.015Z,1.05
2022-11-27T00:31:39.460Z,1.17
2022-11-27T00:34:08.397Z,2.03
2022-11-27T00:36:35.630Z,1.92
2022-11-27T00:39:02.358Z,1.25
2022-11-27T00:41:30.174Z,1.70
2022-11-27T00:43:57.067Z,1.67
2022-11-27T00:46:29.639Z,1.10
2022-11-27T00:49:01.431Z,1.60
2022-11-27T00:51:28.471Z,1.83
2022-11-27T00:53:55.362Z,2.33
2022-11-27T00:56:25.481Z,2.05
2022-11-27T00:58:52.986Z,1.65
2022-11-27T01:01:22.559Z,1.45
2022-11-27T01:03:49.701Z,1.67
2022-11-27T01:06:17.411Z,1.25
2022-11-27T01:08:43.911Z,1.60
2022-11-27T01:11:19.834Z,1.95
2022-11-27T01:13:46.884Z,1.33
2022-11-27T01:16:17.372Z,1.48
2022-11-27T01:18:45.175Z,1.70
2022-11-27T01:21:12.662Z,1.80
2022-11-27T01:23:39.393Z,1.92
2022-11-27T01:26:08.088Z,2.00
2022-11-27T01:28:35.166Z,1.98
2022-11-27T01:31:06.494Z,1.80
2022-11-27T01:33:33.165Z,1.97
2022-11-27T01:36:02.066Z,1.48
2022-11-27T01:38:29.874Z,1.65
2022-11-27T01:41:05.526Z,1.05
2022-11-27T01:43:59.287Z,1.60
2022-11-27T01:46:38.302Z,2.13
2022-11-27T01:49:10.524Z,1.65
2022-11-27T01:51:48.862Z,1.63
2022-11-27T01:54:17.014Z,1.85
2022-11-27T01:56:48.581Z,1.45
2022-11-27T01:59:17.888Z,2.33
2022-11-27T02:01:44.332Z,1.75
2022-11-27T02:04:10.776Z,2.33
2022-11-27T02:06:37.082Z,1.80
2022-11-27T02:09:03.742Z,1.35
2022-11-27T02:11:46.451Z,2.22
2022-11-27T02:14:24.187Z,1.67
2022-11-27T02:17:14.628Z,1.17
2022-11-27T02:20:05.931Z,1.63
2022-11-27T02:23:11.582Z,1.10
2022-11-27T02:26:07.400Z,1.20
2022-11-27T02:28:57.737Z,1.70
2022-11-27T02:31:41.657Z,1.15
2022-11-27T02:34:17.743Z,1.40
2022-11-27T02:36:50.607Z,1.75
2022-11-27T02:39:23.286Z,1.30
2022-11-27T02:41:58.401Z,1.17
2022-11-27T02:44:27.735Z,1.45
2022-11-27T02:46:54.933Z,1.83
2022-11-27T02:49:22.304Z,1.20
2022-11-27T02:51:57.159Z,1.57
2022-11-27T02:54:31.070Z,1.10
2022-11-27T02:57:00.990Z,1.13
2022-11-27T02:59:31.875Z,1.55
2022-11-27T03:02:07.367Z,0.90
2022-11-27T03:04:41.384Z,1.63
2022-11-27T03:07:13.658Z,1.10
2022-11-27T03:09:44.224Z,1.67
2022-11-27T03:12:12.250Z,1.02
2022-11-27T03:14:41.719Z,1.42
2022-11-27T03:17:23.886Z,1.10
2022-11-27T03:20:01.061Z,1.95
2022-11-27T03:22:27.957Z,1.40
2022-11-27T03:24:54.654Z,1.23
2022-11-27T03:27:29.665Z,1.48
2022-11-27T03:29:59.817Z,1.60
2022-11-27T03:32:28.667Z,1.70
2022-11-27T03:34:55.460Z,1.40
2022-11-27T03:37:23.028Z,1.98
2022-11-27T03:39:50.010Z,0.98
2022-11-27T03:42:44.670Z,1.60
2022-11-27T03:45:19.419Z,1.65
2022-11-27T03:48:17.853Z,1.75
2022-11-27T03:50:50.080Z,1.55
2022-11-27T03:53:30.544Z,1.40
2022-11-27T03:56:09.975Z,1.50
2022-11-27T03:58:40.498Z,0.82
2022-11-27T04:01:11.171Z,1.15
2022-11-27T04:03:37.927Z,1.02
2022-11-27T04:06:04.522Z,1.48
2022-11-27T04:08:31.045Z,1.58
2022-11-27T04:10:57.523Z,1.27
2022-11-27T04:13:23.905Z,1.60
2022-11-27T04:15:50.257Z,1.42
2022-11-27T04:18:16.713Z,1.00
2022-11-27T04:20:43.167Z,1.17
2022-11-27T04:23:10.318Z,1.55
2022-11-27T04:25:36.874Z,0.60
2022-11-27T04:28:03.401Z,1.13
2022-11-27T04:30:29.782Z,1.08
2022-11-27T04:32:56.172Z,1.10
2022-11-27T04:35:22.502Z,1.20
2022-11-27T04:37:48.834Z,1.23
2022-11-27T04:40:15.342Z,0.65
2022-11-27T04:42:41.806Z,0.93
2022-11-27T04:45:08.954Z,1.17
2022-11-27T04:47:35.413Z,1.13
2022-11-27T04:50:01.752Z,1.02
2022-11-27T04:52:28.060Z,0.93
2022-11-27T04:54:59.806Z,0.90
2022-11-27T04:57:27.129Z,1.25
2022-11-27T04:59:53.544Z,0.70
2022-11-27T05:02:19.921Z,0.95
2022-11-27T05:04:46.304Z,0.90
2022-11-27T05:07:12.815Z,1.15
2022-11-27T05:09:39.346Z,1.10
2022-11-27T05:12:06.169Z,0.75
2022-11-27T05:14:32.611Z,1.23
2022-11-27T05:16:59.692Z,0.95
2022-11-27T05:19:28.263Z,0.75
2022-11-27T05:21:55.009Z,0.85
2022-11-27T05:24:23.324Z,0.65
2022-11-27T05:26:49.881Z,0.73
2022-11-27T05:29:16.568Z,1.15
2022-11-27T05:31:43.380Z,0.73
2022-11-27T05:34:10.128Z,0.70
2022-11-27T05:36:37.226Z,0.70
2022-11-27T05:39:06.350Z,0.60
2022-11-27T05:41:33.805Z,1.05
2022-11-27T05:44:00.208Z,0.77
2022-11-27T05:46:26.697Z,0.83
2022-11-27T05:48:53.043Z,0.57
2022-11-27T05:51:19.417Z,0.80
2022-11-27T05:53:46.180Z,1.05
2022-11-27T05:56:16.471Z,0.80
2022-11-27T05:58:45.029Z,0.70
2022-11-27T06:01:12.867Z,0.32
2022-11-27T06:03:39.464Z,0.60
2022-11-27T06:06:10.471Z,0.60
2022-11-27T06:08:37.743Z,0.63
2022-11-27T06:11:08.658Z,0.50
2022-11-27T06:13:35.245Z,0.73
2022-11-27T06:16:08.979Z,0.90
2022-11-27T06:18:35.629Z,0.70
2022-11-27T06:21:07.253Z,0.75
2022-11-27T06:23:33.773Z,0.98
2022-11-27T06:26:37.825Z,0.77
2022-11-27T06:29:04.795Z,0.55
2022-11-27T06:31:32.828Z,0.80
2022-11-27T06:33:59.797Z,2.45
2022-11-27T06:36:32.900Z,0.77
2022-11-27T06:39:00.101Z,0.68
2022-11-27T06:41:28.491Z,0.80
2022-11-27T06:43:55.974Z,0.60
2022-11-27T06:46:23.930Z,0.60
2022-11-27T06:48:52.599Z,0.63
2022-11-27T06:51:23.459Z,0.75
2022-11-27T06:53:51.370Z,0.30
2022-11-27T06:56:20.420Z,0.50
2022-11-27T06:58:50.179Z,0.82
2022-11-27T07:01:17.485Z,0.60
2022-11-27T07:03:44.492Z,0.50
2022-11-27T07:06:13.168Z,1.30
2022-11-27T07:08:39.468Z,0.50
2022-11-27T07:11:08.921Z,1.08
2022-11-27T07:13:35.916Z,2.10
2022-11-27T07:16:05.481Z,0.55
2022-11-27T07:18:36.209Z,0.57
2022-11-27T07:21:02.602Z,0.65
2022-11-27T07:23:29.639Z,0.70
2022-11-27T07:25:56.081Z,0.40
2022-11-27T07:28:22.488Z,0.43
2022-11-27T07:30:59.221Z,0.70
2022-11-27T07:33:26.070Z,0.60
2022-11-27T07:36:04.275Z,0.50
2022-11-27T07:38:30.844Z,0.98
2022-11-27T07:41:01.842Z,1.40
2022-11-27T07:43:28.811Z,0.63
2022-11-27T07:45:55.609Z,0.80
2022-11-27T07:48:22.351Z,0.82
2022-11-27T07:50:48.794Z,0.70
2022-11-27T07:53:15.330Z,0.52
2022-11-27T07:55:42.120Z,0.77
2022-11-27T07:58:09.013Z,1.05
2022-11-27T08:00:36.082Z,0.85
2022-11-27T08:03:03.100Z,0.55
2022-11-27T08:05:30.190Z,1.08
2022-11-27T08:08:01.132Z,1.05
2022-11-27T08:10:27.629Z,0.82
2022-11-27T08:12:54.036Z,0.90
2022-11-27T08:15:20.362Z,0.80
2022-11-27T08:17:46.734Z,1.00
2022-11-27T08:20:13.213Z,0.98
2022-11-27T08:22:39.618Z,0.63
2022-11-27T08:25:06.358Z,1.30
2022-11-27T08:27:33.443Z,0.80
2022-11-27T08:30:00.528Z,0.88
2022-11-27T08:32:26.906Z,1.65
2022-11-27T08:34:53.243Z,0.70
2022-11-27T08:37:19.580Z,0.68
2022-11-27T08:39:45.885Z,0.90
2022-11-27T08:42:12.210Z,0.70
2022-11-27T08:44:38.814Z,1.17
2022-11-27T08:47:05.633Z,0.93
2022-11-27T08:49:32.026Z,1.10
2022-11-27T08:51:58.427Z,1.67
2022-11-27T08:54:24.835Z,1.60
2022-11-27T08:56:51.768Z,0.90
2022-11-27T08:59:18.286Z,1.13
2022-11-27T09:01:44.712Z,1.30
2022-11-27T09:04:11.126Z,0.90
2022-11-27T09:06:41.290Z,1.52
2022-11-27T09:09:07.865Z,0.95
2022-11-27T09:11:35.505Z,1.58
2022-11-27T09:14:04.071Z,1.27
2022-11-27T09:16:31.547Z,1.20
2022-11-27T09:18:58.597Z,1.38
2022-11-27T09:21:27.205Z,1.55
2022-11-27T09:23:55.182Z,1.25
2022-11-27T09:26:23.828Z,1.52
2022-11-27T09:28:50.323Z,1.77
2022-11-27T09:31:17.183Z,1.42
2022-11-27T09:33:44.223Z,1.23
2022-11-27T09:36:13.893Z,1.20
2022-11-27T09:38:40.598Z,1.10
2022-11-27T09:41:39.005Z,1.92
2022-11-27T09:44:18.064Z,1.60
2022-11-27T09:46:45.231Z,1.05
2022-11-27T09:49:20.176Z,1.30
2022-11-27T09:51:58.761Z,1.42
2022-11-27T09:55:02.898Z,1.27
2022-11-27T09:57:34.965Z,1.55
2022-11-27T10:00:20.842Z,1.77
2022-11-27T10:02:48.208Z,1.40
2022-11-27T10:05:19.862Z,0.98
2022-11-27T10:08:19.815Z,1.60
2022-11-27T10:10:56.915Z,1.50
2022-11-27T10:14:02.476Z,1.50
2022-11-27T10:16:50.680Z,1.77
2022-11-27T10:19:35.604Z,1.98
2022-11-27T10:22:14.278Z,1.70
2022-11-27T10:24:51.930Z,1.42
2022-11-27T10:27:37.594Z,1.92
2022-11-27T10:30:17.410Z,2.03
2022-11-27T10:32:54.974Z,1.50
2022-11-27T10:35:24.799Z,1.92
2022-11-27T10:38:11.279Z,1.90
2022-11-27T10:40:42.824Z,2.38
2022-11-27T10:43:23.710Z,1.25
2022-11-27T10:46:05.317Z,1.85
2022-11-27T10:48:33.248Z,1.63
2022-11-27T10:51:00.450Z,2.03
2022-11-27T10:53:26.739Z,2.33
2022-11-27T10:56:25.237Z,1.80
2022-11-27T10:59:01.038Z,1.40
2022-11-27T11:01:42.526Z,2.17
2022-11-27T11:04:31.684Z,1.73
2022-11-27T11:06:58.683Z,1.92
2022-11-27T11:09:30.981Z,2.30
2022-11-27T11:12:16.813Z,1.83
2022-11-27T11:14:54.555Z,1.60
2022-11-27T11:17:47.187Z,2.33
2022-11-27T11:20:24.278Z,1.88
2022-11-27T11:22:51.393Z,1.88
2022-11-27T11:25:20.762Z,2.70
2022-11-27T11:27:49.046Z,1.92
2022-11-27T11:30:23.182Z,1.83
2022-11-27T11:32:51.604Z,1.98
2022-11-27T11:35:32.051Z,1.92
2022-11-27T11:37:59.043Z,2.10
2022-11-27T11:40:31.637Z,1.88
2022-11-27T11:43:09.978Z,1.98
2022-11-27T11:45:45.834Z,1.30
2022-11-27T11:48:27.240Z,1.55
2022-11-27T11:51:07.943Z,2.20
2022-11-27T11:53:44.300Z,2.00
2022-11-27T11:56:29.402Z,1.60
2022-11-27T11:59:07.982Z,1.67
2022-11-27T12:01:56.502Z,1.88
2022-11-27T12:04:50.993Z,1.38
2022-11-27T12:07:36.195Z,1.70
2022-11-27T12:10:30.415Z,1.80
2022-11-27T12:13:05.736Z,1.58
2022-11-27T12:15:44.042Z,2.15
2022-11-27T12:18:28.169Z,1.70
2022-11-27T12:21:20.107Z,1.73
2022-11-27T12:23:56.759Z,2.30
2022-11-27T12:26:35.722Z,2.38
2022-11-27T12:29:09.794Z,2.15
2022-11-27T12:31:45.337Z,1.88
2022-11-27T12:34:53.171Z,2.53
2022-11-27T12:37:31.894Z,1.77
2022-11-27T12:40:19.509Z,1.98
2022-11-27T12:42:59.551Z,1.75
2022-11-27T12:45:41.293Z,2.63
2022-11-27T12:48:14.464Z,2.05
2022-11-27T12:51:03.538Z,2.67
2022-11-27T12:53:36.784Z,1.73
2022-11-27T12:56:24.947Z,1.83
2022-11-27T12:58:57.028Z,2.67
2022-11-27T13:01:30.522Z,1.92
2022-11-27T13:04:30.348Z,2.10
2022-11-27T13:07:11.653Z,2.03
2022-11-27T13:09:58.967Z,1.95
2022-11-27T13:12:34.910Z,1.70
2022-11-27T13:15:15.386Z,2.17
2022-11-27T13:17:44.396Z,1.77
2022-11-27T13:20:21.653Z,1.85
2022-11-27T13:22:48.802Z,1.42
2022-11-27T13:25:15.251Z,1.80
2022-11-27T13:27:46.654Z,2.15
2022-11-27T13:30:25.244Z,1.73
2022-11-27T13:32:57.700Z,2.35
2022-11-27T13:35:43.214Z,1.92
2022-11-27T13:38:20.402Z,2.38
2022-11-27T13:40:49.753Z,2.40
2022-11-27T13:43:28.707Z,2.47
2022-11-27T13:46:04.788Z,2.25
2022-11-27T13:48:34.704Z,2.53
2022-11-27T13:51:01.517Z,2.72
2022-11-27T13:53:34.286Z,1.92
2022-11-27T13:56:00.714Z,2.70
2022-11-27T13:58:33.542Z,2.30
2022-11-27T14:01:21.829Z,2.60
2022-11-27T14:03:48.960Z,2.53
2022-11-27T14:06:18.859Z,2.13
2022-11-27T14:08:55.623Z,1.90
2022-11-27T14:11:44.553Z,2.40
2022-11-27T14:14:20.916Z,1.73
2022-11-27T14:16:57.627Z,2.08
2022-11-27T14:19:45.101Z,2.38
2022-11-27T14:23:07.170Z,2.55
2022-11-27T14:25:33.999Z,2.35
2022-11-27T14:28:04.147Z,2.53
2022-11-27T14:30:35.127Z,2.60
2022-11-27T14:33:05.591Z,2.85
2022-11-27T14:35:32.069Z,2.80
2022-11-27T14:38:10.106Z,2.42
2022-11-27T14:40:39.086Z,2.88
2022-11-27T14:43:17.159Z,2.70
2022-11-27T14:45:50.108Z,2.22
2022-11-27T14:48:28.775Z,2.67
2022-11-27T14:50:56.000Z,2.25
2022-11-27T14:53:24.935Z,2.83
2022-11-27T14:55:56.543Z,2.88
2022-11-27T14:58:26.757Z,2.92
2022-11-27T15:00:58.282Z,2.88
2022-11-27T15:03:25.839Z,2.72
2022-11-27T15:06:00.040Z,2.83
2022-11-27T15:08:28.850Z,2.45
2022-11-27T15:11:00.242Z,2.47
2022-11-27T15:13:33.412Z,2.65
2022-11-27T15:16:28.055Z,2.58
2022-11-27T15:18:59.040Z,2.42
2022-11-27T15:21:26.517Z,1.50
2022-11-27T15:23:55.208Z,2.40
2022-11-27T15:26:33.675Z,2.97
2022-11-27T15:29:00.609Z,2.38
2022-11-27T15:31:38.027Z,2.60
2022-11-27T15:34:06.837Z,2.50
2022-11-27T15:36:42.453Z,3.17
2022-11-27T15:39:21.105Z,2.65
2022-11-27T15:42:04.023Z,2.30
2022-11-27T15:44:32.529Z,2.85
2022-11-27T15:47:01.593Z,2.50
2022-11-27T15:49:28.539Z,2.30
2022-11-27T15:51:56.478Z,2.00
2022-11-27T15:54:23.792Z,2.40
2022-11-27T15:56:50.226Z,1.85
2022-11-27T15:59:17.444Z,2.30
2022-11-27T16:01:44.003Z,1.77
2022-11-27T16:04:10.408Z,1.85
2022-11-27T16:06:37.565Z,2.42
2022-11-27T16:09:05.297Z,1.45
2022-11-27T16:11:32.006Z,1.70
2022-11-27T16:13:58.633Z,2.05
2022-11-27T16:16:25.621Z,1.98
2022-11-27T16:18:52.043Z,1.67
2022-11-27T16:21:19.012Z,2.30
2022-11-27T16:23:45.490Z,2.35
2022-11-27T16:26:13.086Z,1.95
2022-11-27T16:28:39.553Z,2.57
2022-11-27T16:31:10.234Z,1.98
2022-11-27T16:33:36.720Z,1.90
2022-11-27T16:36:07.090Z,1.95
2022-11-27T16:38:33.826Z,2.13
2022-11-27T16:41:02.231Z,1.93
2022-11-27T16:43:32.070Z,1.85
2022-11-27T16:46:07.478Z,1.70
2022-11-27T16:48:35.382Z,1.45
2022-11-27T16:51:07.160Z,1.65
2022-11-27T16:53:37.987Z,1.38
2022-11-27T16:56:05.515Z,1.60
2022-11-27T16:58:36.405Z,1.85
2022-11-27T17:01:07.468Z,1.20
2022-11-27T17:03:34.030Z,1.55
2022-11-27T17:06:00.447Z,1.10
2022-11-27T17:08:26.858Z,1.40
2022-11-27T17:10:53.192Z,1.38
2022-11-27T17:13:19.531Z,1.88
2022-11-27T17:15:45.856Z,1.67
2022-11-27T17:18:12.221Z,1.75
2022-11-27T17:20:38.631Z,1.67
2022-11-27T17:23:04.943Z,1.42
2022-11-27T17:25:31.333Z,2.03
2022-11-27T17:27:58.399Z,1.85
2022-11-27T17:30:24.710Z,1.67
2022-11-27T17:32:51.359Z,1.27
2022-11-27T17:35:17.671Z,2.03
2022-11-27T17:37:45.132Z,2.00
2022-11-27T17:40:12.122Z,1.65
2022-11-27T17:42:38.480Z,2.27
2022-11-27T17:45:05.565Z,1.80
2022-11-27T17:47:33.981Z,1.73
2022-11-27T17:50:00.561Z,1.40
2022-11-27T17:52:27.053Z,2.03
2022-11-27T17:54:53.461Z,2.10
2022-11-27T17:57:19.832Z,2.03
2022-11-27T17:59:46.236Z,2.20
2022-11-27T18:02:12.791Z,1.92
2022-11-27T18:04:39.241Z,2.20
2022-11-27T18:07:05.566Z,1.55
2022-11-27T18:09:32.050Z,1.88
2022-11-27T18:11:58.436Z,1.98
2022-11-27T18:14:24.792Z,2.00
2022-11-27T18:16:51.218Z,1.40
2022-11-27T18:19:17.875Z,1.90
2022-11-27T18:21:44.302Z,1.88
2022-11-27T18:24:25.923Z,2.30
2022-11-27T18:27:10.763Z,2.00
2022-11-27T18:29:39.778Z,1.90
2022-11-27T18:32:06.893Z,1.90
2022-11-27T18:34:33.804Z,2.40
2022-11-27T18:37:00.743Z,1.90
2022-11-27T18:39:28.014Z,1.65
2022-11-27T18:41:54.377Z,2.25
2022-11-27T18:44:20.745Z,1.75
2022-11-27T18:46:47.061Z,2.05
2022-11-27T18:49:13.515Z,2.13
2022-11-27T18:51:39.943Z,2.05
2022-11-27T18:54:06.322Z,2.08
2022-11-27T18:56:32.734Z,2.53
2022-11-27T18:59:04.842Z,2.08
2022-11-27T19:01:38.320Z,2.47
2022-11-27T19:04:08.353Z,2.53
2022-11-27T19:06:35.613Z,2.05
2022-11-27T19:09:02.209Z,2.30
2022-11-27T19:11:30.551Z,2.45
2022-11-27T19:13:57.985Z,2.75
2022-11-27T19:16:31.017Z,1.85
2022-11-27T19:18:58.360Z,2.30
2022-11-27T19:21:26.993Z,2.30
2022-11-27T19:23:54.433Z,2.25
2022-11-27T19:26:23.507Z,2.28
2022-11-27T19:28:51.177Z,1.98
2022-11-27T19:31:18.479Z,1.65
2022-11-27T19:33:45.378Z,1.88
2022-11-27T19:36:14.031Z,2.50
2022-11-27T19:38:42.218Z,2.28
2022-11-27T19:41:11.275Z,2.47
2022-11-27T19:43:37.662Z,1.92
2022-11-27T19:46:13.817Z,1.70
2022-11-27T19:48:40.251Z,2.13
2022-11-27T19:51:06.580Z,2.30
2022-11-27T19:53:33.722Z,2.20
2022-11-27T19:56:00.100Z,1.60
2022-11-27T19:58:26.534Z,1.92
2022-11-27T20:00:52.956Z,2.20
2022-11-27T20:03:19.351Z,2.20
2022-11-27T20:05:45.746Z,2.28
2022-11-27T20:08:12.110Z,1.90
2022-11-27T20:10:38.542Z,2.10
2022-11-27T20:13:04.986Z,1.83
2022-11-27T20:15:31.342Z,2.50
2022-11-27T20:17:57.706Z,2.42
2022-11-27T20:20:24.173Z,2.23
2022-11-27T20:22:50.546Z,1.92
2022-11-27T20:25:19.959Z,2.03
2022-11-27T20:27:46.956Z,2.28
2022-11-27T20:30:13.488Z,2.13
2022-11-27T20:32:39.868Z,1.98
2022-11-27T20:35:06.414Z,2.22
2022-11-27T20:37:33.852Z,1.80
2022-11-27T20:40:00.202Z,2.00
2022-11-27T20:42:26.660Z,2.92
2022-11-27T20:44:53.103Z,2.47
2022-11-27T20:47:19.413Z,2.13
2022-11-27T20:49:45.774Z,1.98
2022-11-27T20:52:13.229Z,2.25
2022-11-27T20:54:39.774Z,2.70
2022-11-27T20:57:08.776Z,2.92
2022-11-27T20:59:35.206Z,3.35
2022-11-27T21:02:02.750Z,3.05
2022-11-27T21:04:29.241Z,2.75
2022-11-27T21:06:57.200Z,2.42
2022-11-27T21:09:24.272Z,2.38
2022-11-27T21:11:50.648Z,2.45
2022-11-27T21:14:17.549Z,2.50
2022-11-27T21:16:48.401Z,2.50
2022-11-27T21:19:20.787Z,2.33
2022-11-27T21:21:47.896Z,2.58
2022-11-27T21:24:14.409Z,2.47
2022-11-27T21:26:41.526Z,2.58
2022-11-27T21:29:09.429Z,2.72
2022-11-27T21:31:37.690Z,1.80
2022-11-27T21:34:06.969Z,2.70
2022-11-27T21:36:36.051Z,2.30
2022-11-27T21:39:05.437Z,2.70
2022-11-27T21:41:31.813Z,2.35
2022-11-27T21:43:59.926Z,2.78
2022-11-27T21:46:27.253Z,2.80
2022-11-27T21:48:56.637Z,2.78
2022-11-27T21:51:23.047Z,2.95
2022-11-27T21:53:53.846Z,2.88
2022-11-27T21:56:25.361Z,2.75
2022-11-27T21:58:51.954Z,2.30
2022-11-27T22:01:21.487Z,3.08
2022-11-27T22:03:50.154Z,2.92
2022-11-27T22:06:17.900Z,2.53
2022-11-27T22:08:46.722Z,2.80
2022-11-27T22:11:21.843Z,2.53
2022-11-27T22:13:48.429Z,2.63
2022-11-27T22:16:21.031Z,2.45
2022-11-27T22:18:47.621Z,2.22
2022-11-27T22:21:14.798Z,2.60
2022-11-27T22:23:41.618Z,2.53
2022-11-27T22:26:14.196Z,2.67
2022-11-27T22:28:40.920Z,2.22
2022-11-27T22:31:13.058Z,2.90
2022-11-27T22:33:41.195Z,2.63
2022-11-27T22:36:16.081Z,2.72
2022-11-27T22:38:44.216Z,2.53
2022-11-27T22:41:11.737Z,2.15
2022-11-27T22:43:38.881Z,2.78
2022-11-27T22:46:07.861Z,2.70
2022-11-27T22:48:34.417Z,3.13
2022-11-27T22:51:00.899Z,2.35
2022-11-27T22:53:27.569Z,3.10
2022-11-27T22:55:54.130Z,3.05
2022-11-27T22:58:20.546Z,3.17
2022-11-27T23:00:47.418Z,2.13
2022-11-27T23:03:13.804Z,2.58
2022-11-27T23:05:44.902Z,2.88
2022-11-27T23:08:11.306Z,3.55
2022-11-27T23:10:38.851Z,3.13
2022-11-27T23:13:05.834Z,2.90
2022-11-27T23:15:33.234Z,2.88
2022-11-27T23:17:59.529Z,3.33
2022-11-27T23:20:25.893Z,2.75
2022-11-27T23:22:52.745Z,3.55
2022-11-27T23:25:19.057Z,2.88
2022-11-27T23:27:47.909Z,3.72
2022-11-27T23:30:15.437Z,3.08
2022-11-27T23:32:44.013Z,3.80
2022-11-27T23:35:11.309Z,3.20
2022-11-27T23:37:37.766Z,3.28
2022-11-27T23:40:05.034Z,3.60
2022-11-27T23:42:31.444Z,3.83
2022-11-27T23:44:57.832Z,3.75
2022-11-27T23:47:24.223Z,3.10
2022-11-27T23:49:50.547Z,3.58
2022-11-27T23:52:17.467Z,2.72
2022-11-27T23:54:44.050Z,2.95
2022-11-27T23:57:10.473Z,3.25
2022-11-27T23:59:36.805Z,3.22
